createdAt,value
2023-04-15T00:01:00.663Z,99851.02
2023-04-15T00:03:30.173Z,99848.92
2023-04-15T00:06:02.746Z,99854.71
2023-04-15T00:08:31.285Z,99855.86
2023-04-15T00:11:03.286Z,99855.20
2023-04-15T00:13:34.920Z,99855.44
2023-04-15T00:16:03.367Z,99854.86
2023-04-15T00:18:31.868Z,99856.59
2023-04-15T00:21:00.308Z,99852.56
2023-04-15T00:23:28.847Z,99854.70
2023-04-15T00:25:57.334Z,99851.52
2023-04-15T00:28:25.515Z,99847.27
2023-04-15T00:30:53.742Z,99842.83
2023-04-15T00:33:21.947Z,99839.14
2023-04-15T00:35:49.955Z,99841.40
2023-04-15T00:38:18.852Z,99838.89
2023-04-15T00:40:46.813Z,99844.30
2023-04-15T00:43:15.049Z,99842.05
2023-04-15T00:45:43.681Z,99843.42
2023-04-15T00:48:11.903Z,99840.85
2023-04-15T00:50:40.582Z,99838.96
2023-04-15T00:53:08.744Z,99841.70
2023-04-15T00:55:37.230Z,99843.50
2023-04-15T00:58:13.663Z,99840.63
2023-04-15T01:00:44.476Z,99843.54
2023-04-15T01:03:12.769Z,99844.40
2023-04-15T01:05:42.020Z,99848.23
2023-04-15T01:08:10.685Z,99844.00
2023-04-15T01:10:39.695Z,99843.83
2023-04-15T01:13:08.482Z,99847.37
2023-04-15T01:15:36.545Z,99846.29
2023-04-15T01:18:04.455Z,99843.23
2023-04-15T01:20:34.309Z,99839.77
2023-04-15T01:23:03.613Z,99843.16
2023-04-15T01:25:34.340Z,99838.71
2023-04-15T01:28:03.274Z,99840.77
2023-04-15T01:30:35.891Z,99846.23
2023-04-15T01:33:04.381Z,99847.70
2023-04-15T01:35:32.976Z,99853.39
2023-04-15T01:38:05.700Z,99855.54
2023-04-15T01:40:35.286Z,99853.96
2023-04-15T01:43:04.628Z,99855.56
2023-04-15T01:45:33.699Z,99857.80
2023-04-15T01:48:03.708Z,99857.90
2023-04-15T01:50:37.058Z,99855.02
2023-04-15T01:53:05.069Z,99855.80
2023-04-15T01:55:33.285Z,99849.67
2023-04-15T01:58:01.443Z,99851.55
2023-04-15T02:00:30.091Z,99851.02
2023-04-15T02:02:59.829Z,99859.20
2023-04-15T02:05:27.890Z,99853.55
2023-04-15T02:07:56.123Z,99854.79
2023-04-15T02:10:24.566Z,99858.39
2023-04-15T02:12:54.442Z,99858.88
2023-04-15T02:15:23.420Z,99866.05
2023-04-15T02:17:52.848Z,99865.63
2023-04-15T02:20:22.598Z,99873.56
2023-04-15T02:22:52.390Z,99875.58
2023-04-15T02:25:24.226Z,99877.95
2023-04-15T02:27:53.497Z,99878.83
2023-04-15T02:30:24.042Z,99881.77
2023-04-15T02:32:52.844Z,99881.48
2023-04-15T02:35:22.776Z,99883.67
2023-04-15T02:37:51.139Z,99888.59
2023-04-15T02:40:19.494Z,99888.30
2023-04-15T02:42:49.198Z,99888.30
2023-04-15T02:45:19.818Z,99885.70
2023-04-15T02:47:50.957Z,99888.41
2023-04-15T02:50:19.558Z,99894.86
2023-04-15T02:52:48.068Z,99902.58
2023-04-15T02:55:18.106Z,99907.92
2023-04-15T02:57:46.995Z,99908.91
2023-04-15T03:00:14.985Z,99912.67
2023-04-15T03:02:46.276Z,99915.89
2023-04-15T03:05:14.458Z,99916.04
2023-04-15T03:07:50.537Z,99921.63
2023-04-15T03:10:19.037Z,99921.75
2023-04-15T03:12:48.529Z,99921.85
2023-04-15T03:15:25.280Z,99921.84
2023-04-15T03:17:54.586Z,99920.84
2023-04-15T03:20:22.856Z,99921.70
2023-04-15T03:22:53.148Z,99929.30
2023-04-15T03:25:22.279Z,99933.97
2023-04-15T03:27:50.450Z,99932.31
2023-04-15T03:30:32.654Z,99930.83
2023-04-15T03:33:01.681Z,99931.57
2023-04-15T03:35:30.841Z,99938.73
2023-04-15T03:37:58.977Z,99941.88
2023-04-15T03:40:27.169Z,99939.94
2023-04-15T03:42:55.077Z,99941.56
2023-04-15T03:45:23.913Z,99943.23
2023-04-15T03:47:53.458Z,99935.48
2023-04-15T03:50:21.948Z,99935.66
2023-04-15T03:52:51.295Z,99934.25
2023-04-15T03:55:20.283Z,99933.84
2023-04-15T03:57:48.572Z,99924.86
2023-04-15T04:00:16.817Z,99924.63
2023-04-15T04:02:46.892Z,99926.02
2023-04-15T04:05:15.058Z,99928.68
2023-04-15T04:07:43.912Z,99930.34
2023-04-15T04:10:11.953Z,99936.27
2023-04-15T04:12:40.106Z,99932.53
2023-04-15T04:15:10.533Z,99935.01
2023-04-15T04:17:38.672Z,99935.98
2023-04-15T04:20:07.539Z,99934.13
2023-04-15T04:22:46.722Z,99934.64
2023-04-15T04:25:15.108Z,99932.21
2023-04-15T04:27:43.684Z,99932.49
2023-04-15T04:30:17.121Z,99935.64
2023-04-15T04:32:49.842Z,99934.89
2023-04-15T04:35:18.051Z,99942.80
2023-04-15T04:37:46.241Z,99943.53
2023-04-15T04:40:14.849Z,99941.95
2023-04-15T04:42:42.825Z,99942.70
2023-04-15T04:45:12.683Z,99948.58
2023-04-15T04:47:42.739Z,99946.41
2023-04-15T04:50:11.087Z,99948.11
2023-04-15T04:52:44.446Z,99950.95
2023-04-15T04:55:12.612Z,99950.98
2023-04-15T04:57:41.193Z,99951.70
2023-04-15T05:00:14.132Z,99950.29
2023-04-15T05:02:44.351Z,99941.82
2023-04-15T05:05:13.515Z,99948.95
2023-04-15T05:07:46.223Z,99948.13
2023-04-15T05:10:15.520Z,99948.95
2023-04-15T05:12:44.293Z,99948.93
2023-04-15T05:15:16.692Z,99947.67
2023-04-15T05:25:24.667Z,99963.77
2023-04-15T05:27:53.656Z,99960.18
2023-04-15T05:30:22.391Z,99964.31
2023-04-15T05:33:07.965Z,99968.41
2023-04-15T05:35:36.884Z,99963.98
2023-04-15T05:38:05.996Z,99965.20
2023-04-15T05:40:34.020Z,99966.77
2023-04-15T05:43:02.628Z,99968.67
2023-04-15T05:45:34.080Z,99967.17
2023-04-15T05:48:02.549Z,99969.04
2023-04-15T05:50:30.678Z,99965.35
2023-04-15T05:53:03.307Z,99970.83
2023-04-15T05:55:32.256Z,99970.51
2023-04-15T05:58:00.316Z,99966.41
2023-04-15T06:00:28.320Z,99973.63
2023-04-15T06:02:56.974Z,99971.05
2023-04-15T06:05:26.374Z,99969.18
2023-04-15T06:07:54.678Z,99970.64
2023-04-15T06:10:22.849Z,99967.84
2023-04-15T06:12:51.243Z,99968.72
2023-04-15T06:15:19.849Z,99966.25
2023-04-15T06:17:48.284Z,99968.98
2023-04-15T06:20:16.677Z,99972.15
2023-04-15T06:22:45.467Z,99970.33
2023-04-15T06:25:14.230Z,99976.66
2023-04-15T06:27:43.263Z,99977.64
2023-04-15T06:30:12.260Z,99973.33
2023-04-15T06:32:41.824Z,99975.35
2023-04-15T06:35:10.255Z,99981.90
2023-04-15T06:37:38.389Z,99987.33
2023-04-15T06:40:07.193Z,99991.39
2023-04-15T06:42:36.062Z,99996.41
2023-04-15T06:45:04.302Z,99989.90
2023-04-15T06:47:32.507Z,99992.83
2023-04-15T06:50:00.753Z,100002.92
2023-04-15T06:52:30.560Z,100007.04
2023-04-15T06:54:59.627Z,100005.35
2023-04-15T06:57:28.938Z,100007.48
2023-04-15T06:59:58.722Z,100015.45
2023-04-15T07:02:29.607Z,100018.67
2023-04-15T07:04:57.946Z,100019.10
2023-04-15T07:07:30.745Z,100010.70
2023-04-15T07:10:00.970Z,100009.08
2023-04-15T07:12:29.576Z,100010.91
2023-04-15T07:14:58.242Z,100014.27
2023-04-15T07:17:35.458Z,100013.71
2023-04-15T07:20:05.378Z,100011.70
2023-04-15T07:22:34.235Z,100011.82
2023-04-15T07:25:02.977Z,100010.77
2023-04-15T07:27:32.656Z,100013.51
2023-04-15T07:30:01.114Z,100020.48
2023-04-15T07:32:29.630Z,100022.75
2023-04-15T07:34:58.487Z,100025.58
2023-04-15T07:37:27.060Z,100026.16
2023-04-15T07:39:55.136Z,100028.30
2023-04-15T07:42:27.793Z,100022.92
2023-04-15T07:44:56.341Z,100024.34
2023-04-15T07:47:24.411Z,100026.17
2023-04-15T07:49:52.301Z,100021.19
2023-04-15T07:52:20.335Z,100020.38
2023-04-15T07:54:48.271Z,100025.80
2023-04-15T07:57:18.035Z,100033.94
2023-04-15T07:59:47.431Z,100040.88
2023-04-15T08:02:15.697Z,100039.09
2023-04-15T08:04:44.317Z,100040.26
2023-04-15T08:07:13.031Z,100037.88
2023-04-15T08:09:42.077Z,100035.30
2023-04-15T08:12:13.499Z,100034.73
2023-04-15T08:14:53.430Z,100038.27
2023-04-15T08:17:24.385Z,100034.96
2023-04-15T08:19:53.919Z,100037.20
2023-04-15T08:22:22.429Z,100040.90
2023-04-15T08:24:58.252Z,100040.91
2023-04-15T08:27:31.308Z,100039.02
2023-04-15T08:30:04.600Z,100039.27
2023-04-15T08:32:33.597Z,100033.79
2023-04-15T08:35:08.084Z,100024.77
2023-04-15T08:37:36.037Z,100022.32
2023-04-15T08:40:05.173Z,100018.80
2023-04-15T08:42:51.021Z,100027.73
2023-04-15T08:45:19.475Z,100025.42
2023-04-15T08:47:48.540Z,100024.67
2023-04-15T08:50:16.621Z,100026.54
2023-04-15T08:52:55.426Z,100026.70
2023-04-15T08:55:24.526Z,100029.60
2023-04-15T08:57:52.901Z,100030.77
2023-04-15T09:00:22.401Z,100028.54
2023-04-15T09:02:51.204Z,100028.52
2023-04-15T09:05:21.749Z,100034.67
2023-04-15T09:07:53.699Z,100028.34
2023-04-15T09:10:21.822Z,100028.42
2023-04-15T09:12:50.954Z,100027.64
2023-04-15T09:15:18.998Z,100030.98
2023-04-15T09:17:47.949Z,100027.83
2023-04-15T09:20:16.418Z,100030.88
2023-04-15T09:22:45.625Z,100029.39
2023-04-15T09:25:23.100Z,100035.31
2023-04-15T09:27:51.636Z,100036.34
2023-04-15T09:30:19.802Z,100041.41
2023-04-15T09:32:49.487Z,100042.89
2023-04-15T09:35:17.729Z,100044.94
2023-04-15T09:37:45.680Z,100040.99
2023-04-15T09:40:15.144Z,100040.69
2023-04-15T09:42:56.509Z,100041.33
2023-04-15T09:45:27.101Z,100037.15
2023-04-15T09:48:01.197Z,100041.17
2023-04-15T09:50:29.729Z,100037.77
2023-04-15T09:52:58.088Z,100041.52
2023-04-15T09:55:27.414Z,100048.30
2023-04-15T09:57:55.552Z,100039.54
2023-04-15T10:00:24.565Z,100041.23
2023-04-15T10:02:53.465Z,100037.88
2023-04-15T10:05:23.612Z,100035.46
2023-04-15T10:07:52.328Z,100035.70
2023-04-15T10:10:20.739Z,100028.72
2023-04-15T10:12:48.933Z,100034.19
2023-04-15T10:15:17.698Z,100039.41
2023-04-15T10:17:46.369Z,100041.27
2023-04-15T10:20:14.887Z,100039.91
2023-04-15T10:22:43.034Z,100047.06
2023-04-15T10:25:13.517Z,100048.02
2023-04-15T10:27:42.495Z,100047.39
2023-04-15T10:30:11.682Z,100057.54
2023-04-15T10:32:40.866Z,100063.23
2023-04-15T10:35:09.633Z,100065.58
2023-04-15T10:37:38.264Z,100066.67
2023-04-15T10:40:26.476Z,100069.31
2023-04-15T10:43:03.591Z,100072.98
2023-04-15T10:45:33.988Z,100068.46
2023-04-15T10:48:03.542Z,100075.38
2023-04-15T10:50:32.764Z,100074.48
2023-04-15T10:53:02.637Z,100064.92
2023-04-15T10:55:33.930Z,100059.43
2023-04-15T10:58:02.389Z,100059.05
2023-04-15T11:00:35.389Z,100060.36
2023-04-15T11:03:07.452Z,100065.59
2023-04-15T11:05:42.208Z,100064.15
2023-04-15T11:08:10.794Z,100065.30
2023-04-15T11:10:39.177Z,100068.17
2023-04-15T11:13:10.077Z,100067.38
2023-04-15T11:15:41.780Z,100069.01
2023-04-15T11:18:11.127Z,100067.43
2023-04-15T11:20:45.328Z,100066.20
2023-04-15T11:23:15.743Z,100076.14
2023-04-15T11:25:46.739Z,100073.10
2023-04-15T11:28:14.796Z,100073.33
2023-04-15T11:30:42.819Z,100068.60
2023-04-15T11:33:12.600Z,100064.27
2023-04-15T11:35:41.491Z,100063.48
2023-04-15T11:38:10.986Z,100057.65
2023-04-15T11:40:38.979Z,100061.93
2023-04-15T11:43:09.924Z,100068.84
2023-04-15T11:45:39.398Z,100072.43
2023-04-15T11:48:07.866Z,100069.83
2023-04-15T11:50:36.198Z,100071.19
2023-04-15T11:53:08.153Z,100072.34
2023-04-15T11:55:47.080Z,100069.35
2023-04-15T11:58:24.799Z,100071.73
2023-04-15T12:00:56.839Z,100073.86
2023-04-15T12:03:26.235Z,100066.33
2023-04-15T12:06:16.883Z,100061.68
2023-04-15T12:08:49.310Z,100061.25
2023-04-15T12:11:21.660Z,100047.77
2023-04-15T12:13:51.378Z,100057.94
2023-04-15T12:16:20.084Z,100055.83
2023-04-15T12:18:56.246Z,100053.62
2023-04-15T12:21:25.293Z,100056.98
2023-04-15T12:23:57.333Z,100050.83
2023-04-15T12:26:29.153Z,100044.44
2023-04-15T12:29:07.964Z,100047.65
2023-04-15T12:31:37.139Z,100037.79
2023-04-15T12:34:07.852Z,100036.20
2023-04-15T12:36:37.366Z,100039.57
2023-04-15T12:39:06.263Z,100029.42
2023-04-15T12:41:35.798Z,100031.41
2023-04-15T12:44:04.137Z,100029.57
2023-04-15T12:46:32.834Z,100025.77
2023-04-15T12:49:00.932Z,100021.12
2023-04-15T12:51:29.031Z,100021.77
2023-04-15T12:53:57.436Z,100021.61
2023-04-15T12:56:25.755Z,100024.73
2023-04-15T12:58:53.677Z,100018.66
2023-04-15T13:01:24.052Z,100025.90
2023-04-15T13:03:52.429Z,100028.13
2023-04-15T13:06:21.830Z,100023.79
2023-04-15T13:08:58.323Z,100024.16
2023-04-15T13:11:27.627Z,100030.49
2023-04-15T13:13:57.115Z,100031.81
2023-04-15T13:16:25.924Z,100035.39
2023-04-15T13:18:53.994Z,100032.30
2023-04-15T13:21:22.553Z,100026.67
2023-04-15T13:23:53.196Z,100026.30
2023-04-15T13:26:21.383Z,100027.02
2023-04-15T13:28:49.414Z,100029.80
2023-04-15T13:31:17.852Z,100034.77
2023-04-15T13:33:46.167Z,100033.87
2023-04-15T13:36:15.097Z,100027.16
2023-04-15T13:38:43.163Z,100027.20
2023-04-15T13:41:11.357Z,100027.66
2023-04-15T13:43:39.384Z,100026.92
2023-04-15T13:46:07.362Z,100027.12
2023-04-15T13:48:36.237Z,100033.01
2023-04-15T13:51:04.265Z,100032.07
2023-04-15T13:53:37.980Z,100028.40
2023-04-15T13:56:07.956Z,100030.20
2023-04-15T13:58:36.906Z,100030.88
2023-04-15T14:01:06.318Z,100034.11
2023-04-15T14:03:36.185Z,100029.09
2023-04-15T14:06:05.182Z,100035.77
2023-04-15T14:08:33.245Z,100037.31
2023-04-15T14:11:01.165Z,100037.45
2023-04-15T14:13:29.492Z,100042.20
2023-04-15T14:15:57.929Z,100037.23
2023-04-15T14:18:26.106Z,100034.08
2023-04-15T14:20:54.160Z,100031.09
2023-04-15T14:23:23.432Z,100034.42
2023-04-15T14:25:52.221Z,100034.68
2023-04-15T14:28:20.593Z,100039.36
2023-04-15T14:30:48.813Z,100037.05
2023-04-15T14:33:17.892Z,100039.59
2023-04-15T14:35:46.515Z,100038.75
2023-04-15T14:38:15.124Z,100041.77
2023-04-15T14:40:43.383Z,100046.16
2023-04-15T14:43:11.493Z,100048.00
2023-04-15T14:45:42.174Z,100045.85
2023-04-15T14:48:14.149Z,100045.52
2023-04-15T14:50:42.503Z,100045.31
2023-04-15T14:53:10.656Z,100050.66
2023-04-15T14:55:38.966Z,100057.86
2023-04-15T14:58:08.484Z,100053.54
2023-04-15T15:00:39.331Z,100058.92
2023-04-15T15:03:12.935Z,100064.73
2023-04-15T15:05:41.509Z,100063.98
2023-04-15T15:08:10.432Z,100064.91
2023-04-15T15:10:48.970Z,100071.07
2023-04-15T15:13:19.488Z,100072.89
2023-04-15T15:15:49.753Z,100070.10
2023-04-15T15:18:19.533Z,100063.45
2023-04-15T15:20:48.179Z,100061.97
2023-04-15T15:23:16.533Z,100059.63
2023-04-15T15:25:44.731Z,100059.84
2023-04-15T15:28:12.839Z,100057.30
2023-04-15T15:30:41.149Z,100054.08
2023-04-15T15:33:09.263Z,100050.05
2023-04-15T15:35:37.463Z,100047.83
2023-04-15T15:38:06.396Z,100055.56
2023-04-15T15:40:35.527Z,100059.83
2023-04-15T15:43:03.814Z,100064.02
2023-04-15T15:45:33.224Z,100061.58
2023-04-15T15:48:01.722Z,100065.15
2023-04-15T15:50:53.131Z,100060.58
2023-04-15T15:53:25.993Z,100046.53
2023-04-15T15:55:54.144Z,100046.94
2023-04-15T15:58:22.699Z,100060.50
2023-04-15T16:00:50.855Z,100064.69
2023-04-15T16:03:19.112Z,100057.92
2023-04-15T16:05:47.948Z,100060.69
2023-04-15T16:08:16.623Z,100061.48
2023-04-15T16:10:47.020Z,100062.92
2023-04-15T16:13:15.219Z,100066.94
2023-04-15T16:15:45.023Z,100062.69
2023-04-15T16:18:12.893Z,100064.00
2023-04-15T16:20:41.068Z,100054.69
2023-04-15T16:23:12.209Z,100051.54
2023-04-15T16:25:41.736Z,100052.13
2023-04-15T16:28:25.128Z,100054.55
2023-04-15T16:30:54.545Z,100052.52
2023-04-15T16:33:22.987Z,100063.11
2023-04-15T16:35:51.281Z,100065.13
2023-04-15T16:38:19.595Z,100070.51
2023-04-15T16:40:47.706Z,100069.70
2023-04-15T16:43:16.198Z,100063.33
2023-04-15T16:45:45.471Z,100066.72
2023-04-15T16:48:13.488Z,100060.41
2023-04-15T16:50:42.855Z,100067.23
2023-04-15T16:53:12.481Z,100064.45
2023-04-15T16:55:41.231Z,100060.15
2023-04-15T16:58:09.256Z,100054.37
2023-04-15T17:00:37.288Z,100060.90
2023-04-15T17:03:05.527Z,100064.59
2023-04-15T17:05:34.252Z,100063.79
2023-04-15T17:08:03.041Z,100065.94
2023-04-15T17:10:32.002Z,100072.34
2023-04-15T17:12:59.872Z,100076.48
2023-04-15T17:15:27.820Z,100084.25
2023-04-15T17:17:56.384Z,100086.81
2023-04-15T17:20:24.784Z,100091.98
2023-04-15T17:22:52.782Z,100100.34
2023-04-15T17:25:20.937Z,100107.66
2023-04-15T17:27:49.344Z,100119.23
2023-04-15T17:30:17.370Z,100122.33
2023-04-15T17:32:46.107Z,100125.75
2023-04-15T17:35:14.156Z,100117.11
2023-04-15T17:37:45.113Z,100119.09
2023-04-15T17:40:15.078Z,100124.58
2023-04-15T17:42:43.902Z,100134.08
2023-04-15T17:45:11.976Z,100144.71
2023-04-15T17:47:40.163Z,100164.11
2023-04-15T17:50:09.189Z,100170.50
2023-04-15T17:52:37.262Z,100168.45
2023-04-15T17:55:05.627Z,100174.56
2023-04-15T17:57:34.935Z,100180.13
2023-04-15T18:00:03.602Z,100185.05
2023-04-15T18:02:40.848Z,100187.79
2023-04-15T18:05:09.477Z,100197.60
2023-04-15T18:07:38.426Z,100201.90
2023-04-15T18:10:07.534Z,100214.56
2023-04-15T18:12:35.730Z,100219.81
2023-04-15T18:15:04.543Z,100222.86
2023-04-15T18:17:32.880Z,100224.77
2023-04-15T18:20:01.079Z,100221.41
2023-04-15T18:22:29.275Z,100221.59
2023-04-15T18:24:59.193Z,100214.81
2023-04-15T18:27:27.801Z,100211.24
2023-04-15T18:29:56.325Z,100201.56
2023-04-15T18:32:24.506Z,100199.68
2023-04-15T18:34:52.950Z,100199.02
2023-04-15T18:37:23.315Z,100195.77
2023-04-15T18:39:55.163Z,100194.71
2023-04-15T18:42:24.986Z,100185.63
2023-04-15T18:44:53.096Z,100187.36
2023-04-15T18:47:21.311Z,100187.38
2023-04-15T18:49:49.429Z,100189.64
2023-04-15T18:52:18.433Z,100187.48
2023-04-15T18:54:46.422Z,100184.61
2023-04-15T18:57:14.718Z,100177.59
2023-04-15T18:59:48.975Z,100175.04
2023-04-15T19:02:19.004Z,100171.58
2023-04-15T19:04:47.111Z,100174.04
2023-04-15T19:07:15.086Z,100176.88
2023-04-15T19:09:43.013Z,100171.83
2023-04-15T19:12:11.040Z,100165.11
2023-04-15T19:14:40.176Z,100169.18
2023-04-15T19:17:08.187Z,100169.91
2023-04-15T19:19:36.157Z,100170.99
2023-04-15T19:22:04.231Z,100174.85
2023-04-15T19:24:33.084Z,100177.91
2023-04-15T19:27:01.875Z,100178.64
2023-04-15T19:29:30.905Z,100175.06
2023-04-15T19:31:58.896Z,100175.05
2023-04-15T19:34:27.145Z,100168.22
2023-04-15T19:36:55.005Z,100166.44
2023-04-15T19:39:26.081Z,100171.27
2023-04-15T19:41:55.440Z,100179.27
2023-04-15T19:44:23.650Z,100184.70
2023-04-15T19:46:53.235Z,100189.75
2023-04-15T19:49:21.322Z,100187.16
2023-04-15T19:51:50.242Z,100188.00
2023-04-15T19:54:18.118Z,100184.21
2023-04-15T19:56:46.242Z,100182.54
2023-04-15T19:59:14.484Z,100177.52
2023-04-15T20:01:42.390Z,100180.23
2023-04-15T20:04:10.974Z,100183.90
2023-04-15T20:06:39.163Z,100177.63
2023-04-15T20:09:08.977Z,100176.49
2023-04-15T20:12:45.255Z,100182.73
2023-04-15T20:14:27.477Z,100182.50
2023-04-15T20:16:55.593Z,100186.15
2023-04-15T20:19:23.599Z,100187.75
2023-04-15T20:21:52.620Z,100186.32
2023-04-15T20:24:21.547Z,100190.59
2023-04-15T20:26:49.531Z,100191.62
2023-04-15T20:29:17.497Z,100193.88
2023-04-15T20:31:49.110Z,100190.35
2023-04-15T20:34:17.726Z,100192.05
2023-04-15T20:36:45.814Z,100188.10
2023-04-15T20:39:14.108Z,100190.19
2023-04-15T20:41:42.400Z,100187.56
2023-04-15T20:44:10.795Z,100190.85
2023-04-15T20:46:38.815Z,100188.54
2023-04-15T20:49:07.112Z,100193.55
2023-04-15T20:51:37.775Z,100192.33
2023-04-15T20:54:06.196Z,100189.74
2023-04-15T20:56:34.145Z,100189.62
2023-04-15T20:59:02.449Z,100190.27
2023-04-15T21:01:30.475Z,100188.57
2023-04-15T21:03:58.919Z,100188.88
2023-04-15T21:06:27.679Z,100187.26
2023-04-15T21:08:55.832Z,100185.40
2023-04-15T21:11:43.003Z,100189.43
2023-04-15T21:14:12.419Z,100188.59
2023-04-15T21:16:40.416Z,100191.39
2023-04-15T21:19:09.035Z,100192.50
2023-04-15T21:21:37.195Z,100188.52
2023-04-15T21:24:07.018Z,100192.05
2023-04-15T21:26:36.293Z,100192.50
2023-04-15T21:29:04.687Z,100195.05
2023-04-15T21:31:33.315Z,100193.98
2023-04-15T21:34:01.586Z,100195.00
2023-04-15T21:36:31.870Z,100195.37
2023-04-15T21:39:00.018Z,100199.15
2023-04-15T21:41:27.948Z,100201.86
2023-04-15T21:43:55.969Z,100198.29
2023-04-15T21:46:25.546Z,100200.33
2023-04-15T21:49:00.552Z,100198.08
2023-04-15T21:51:28.591Z,100204.64
2023-04-15T21:53:57.149Z,100207.92
2023-04-15T21:56:25.568Z,100205.39
2023-04-15T21:58:54.996Z,100207.60
2023-04-15T22:01:23.284Z,100210.85
2023-04-15T22:03:51.462Z,100211.96
2023-04-15T22:06:19.655Z,100215.94
2023-04-15T22:09:09.246Z,100212.55
2023-04-15T22:11:36.515Z,100212.63
2023-04-15T22:14:05.700Z,100209.59
2023-04-15T22:16:34.455Z,100210.12
2023-04-15T22:19:03.116Z,100210.52
2023-04-15T22:21:32.610Z,100213.22
2023-04-15T22:24:34.979Z,100214.55
2023-04-15T22:26:48.496Z,100212.97
2023-04-15T22:29:16.414Z,100213.14
2023-04-15T22:31:44.413Z,100208.54
2023-04-15T22:34:14.863Z,100208.45
2023-04-15T22:36:42.817Z,100202.08
2023-04-15T22:39:10.866Z,100203.78
2023-04-15T22:41:38.690Z,100202.48
2023-04-15T22:44:06.648Z,100207.92
2023-04-15T22:46:35.104Z,100208.78
2023-04-15T22:49:03.323Z,100208.41
2023-04-15T22:51:31.739Z,100209.45
2023-04-15T22:54:00.004Z,100217.89
2023-04-15T22:56:27.849Z,100214.47
2023-04-15T22:58:55.722Z,100212.46
2023-04-15T23:01:24.161Z,100219.82
2023-04-15T23:03:56.427Z,100215.79
2023-04-15T23:06:27.331Z,100218.63
2023-04-15T23:08:55.582Z,100219.41
2023-04-15T23:11:23.986Z,100218.48
2023-04-15T23:13:53.117Z,100215.31
2023-04-15T23:16:21.474Z,100217.38
2023-04-15T23:18:49.490Z,100221.22
2023-04-15T23:21:18.694Z,100218.08
2023-04-15T23:23:46.789Z,100223.37
2023-04-15T23:26:15.328Z,100223.80
2023-04-15T23:28:43.287Z,100230.77
2023-04-15T23:31:11.246Z,100234.80
2023-04-15T23:33:39.518Z,100234.83
2023-04-15T23:36:07.608Z,100238.46
2023-04-15T23:38:36.367Z,100236.38
2023-04-15T23:41:04.573Z,100234.57
2023-04-15T23:43:32.596Z,100230.06
2023-04-15T23:46:00.627Z,100232.20
2023-04-15T23:48:30.265Z,100236.20
2023-04-15T23:50:58.984Z,100240.08
2023-04-15T23:53:26.883Z,100238.33
2023-04-15T23:55:54.787Z,100241.23
2023-04-15T23:58:23.122Z,100244.59
